createdAt,value
2016-12-26T00:00:05.838Z,8.98
2016-12-26T00:00:27.590Z,8.99
2016-12-26T00:00:49.333Z,8.99
2016-12-26T00:01:11.086Z,9.01
2016-12-26T00:01:33.078Z,9.00
2016-12-26T00:01:55.710Z,9.00
2016-12-26T00:03:15.336Z,9.00
2016-12-26T00:03:41.846Z,8.99
2016-12-26T00:04:03.632Z,8.99
2016-12-26T00:04:25.382Z,9.00
2016-12-26T00:04:47.220Z,8.99
2016-12-26T00:05:13.743Z,8.98
2016-12-26T00:05:35.642Z,8.98
2016-12-26T00:06:02.210Z,8.97
2016-12-26T00:06:32.321Z,8.97
2016-12-26T00:06:55.073Z,9.00
2016-12-26T00:07:20.775Z,8.98
2016-12-26T00:07:43.509Z,9.00
2016-12-26T00:08:05.259Z,8.98
2016-12-26T00:08:27.009Z,8.96
2016-12-26T00:08:49.111Z,8.98
2016-12-26T00:09:10.880Z,8.99
2016-12-26T00:09:33.628Z,9.00
2016-12-26T00:09:56.360Z,8.99
2016-12-26T00:10:18.154Z,9.00
2016-12-26T00:10:42.515Z,9.00
2016-12-26T00:11:04.257Z,9.01
2016-12-26T00:11:26.002Z,9.00
2016-12-26T00:11:47.753Z,9.01
2016-12-26T00:12:09.499Z,8.99
2016-12-26T00:12:31.252Z,8.99
2016-12-26T00:12:52.989Z,8.99
2016-12-26T00:13:14.783Z,8.97
2016-12-26T00:13:39.438Z,8.98
2016-12-26T00:14:01.228Z,9.00
2016-12-26T00:14:28.164Z,8.99
2016-12-26T00:14:49.913Z,8.99
2016-12-26T00:15:16.530Z,9.01
2016-12-26T00:15:38.448Z,9.01
2016-12-26T00:16:00.195Z,9.01
2016-12-26T00:16:27.722Z,9.01
2016-12-26T00:16:49.615Z,9.00
2016-12-26T00:17:16.123Z,8.99
2016-12-26T00:17:37.868Z,9.01
2016-12-26T00:17:59.753Z,9.00
2016-12-26T00:18:27.252Z,9.00
2016-12-26T00:18:50.008Z,9.01
2016-12-26T00:19:12.007Z,9.00
2016-12-26T00:19:33.761Z,9.00
2016-12-26T00:19:55.500Z,9.00
2016-12-26T00:20:18.247Z,9.00
2016-12-26T00:20:40.006Z,9.00
2016-12-26T00:21:01.747Z,9.01
2016-12-26T00:21:24.499Z,9.01
2016-12-26T00:21:55.778Z,9.02
2016-12-26T00:22:27.097Z,9.01
2016-12-26T00:22:48.852Z,9.02
2016-12-26T00:23:10.669Z,9.00
2016-12-26T00:23:32.452Z,9.00
2016-12-26T00:23:55.184Z,9.02
2016-12-26T00:24:27.500Z,9.02
2016-12-26T00:24:56.997Z,9.03
2016-12-26T00:25:23.503Z,9.01
2016-12-26T00:25:50.042Z,9.01
2016-12-26T00:26:16.572Z,9.01
2016-12-26T00:26:38.608Z,9.02
2016-12-26T00:27:01.998Z,9.03
2016-12-26T00:27:23.851Z,9.02
2016-12-26T00:27:45.586Z,9.02
2016-12-26T00:28:08.339Z,9.02
2016-12-26T00:28:30.082Z,9.01
2016-12-26T00:28:56.599Z,9.02
2016-12-26T00:29:19.344Z,9.04
2016-12-26T00:29:48.771Z,9.03
2016-12-26T00:30:10.514Z,9.02
2016-12-26T00:30:32.259Z,9.03
2016-12-26T00:31:23.491Z,9.02
2016-12-26T00:31:45.525Z,9.03
2016-12-26T00:32:07.850Z,9.03
2016-12-26T00:32:29.977Z,9.03
2016-12-26T00:32:52.962Z,9.04
2016-12-26T00:33:15.095Z,9.04
2016-12-26T00:33:46.376Z,9.06
2016-12-26T00:34:08.120Z,9.03
2016-12-26T00:34:30.863Z,9.03
2016-12-26T00:34:52.611Z,9.03
2016-12-26T00:35:14.385Z,9.04
2016-12-26T00:35:36.322Z,9.05
2016-12-26T00:35:58.186Z,9.04
2016-12-26T00:36:19.927Z,9.03
2016-12-26T00:36:47.435Z,9.02
2016-12-26T00:38:28.272Z,9.06
2016-12-26T00:38:50.042Z,9.05
2016-12-26T00:39:11.795Z,9.05
2016-12-26T00:39:33.655Z,9.04
2016-12-26T00:39:55.587Z,9.05
2016-12-26T00:40:17.709Z,9.06
2016-12-26T00:40:49.065Z,9.07
2016-12-26T00:41:11.551Z,9.07
2016-12-26T00:41:33.476Z,9.06
2016-12-26T00:41:57.438Z,9.06
2016-12-26T00:42:25.107Z,9.06
2016-12-26T00:42:47.110Z,9.07
2016-12-26T00:43:09.088Z,9.07
2016-12-26T00:43:31.046Z,9.05
2016-12-26T00:43:52.779Z,9.07
2016-12-26T00:44:14.518Z,9.06
2016-12-26T00:44:36.261Z,9.07
2016-12-26T00:44:57.998Z,9.08
2016-12-26T00:45:20.769Z,9.06
2016-12-26T00:45:43.518Z,9.07
2016-12-26T00:46:31.801Z,9.07
2016-12-26T00:46:54.537Z,9.07
2016-12-26T00:47:16.329Z,9.08
2016-12-26T00:47:38.080Z,9.07
2016-12-26T00:47:59.838Z,9.07
2016-12-26T00:48:22.616Z,9.09
2016-12-26T00:48:44.416Z,9.06
2016-12-26T00:49:06.161Z,9.07
2016-12-26T00:49:28.930Z,9.08
2016-12-26T00:49:50.692Z,9.07
2016-12-26T00:50:13.436Z,9.08
2016-12-26T00:50:35.349Z,9.09
2016-12-26T00:50:57.088Z,9.10
2016-12-26T00:51:18.856Z,9.10
2016-12-26T00:51:40.637Z,9.10
2016-12-26T00:52:34.789Z,9.11
2016-12-26T00:52:56.538Z,9.09
2016-12-26T00:53:18.299Z,9.10
2016-12-26T00:53:42.941Z,9.09
2016-12-26T00:54:04.669Z,9.08
2016-12-26T00:54:27.423Z,9.10
2016-12-26T00:55:17.704Z,9.12
2016-12-26T00:55:40.455Z,9.11
2016-12-26T00:56:02.194Z,9.11
2016-12-26T00:56:23.928Z,9.09
2016-12-26T00:56:45.721Z,9.11
2016-12-26T00:57:07.489Z,9.12
2016-12-26T00:57:36.756Z,9.11
2016-12-26T00:57:58.892Z,9.11
2016-12-26T00:58:26.393Z,9.12
2016-12-26T00:58:52.943Z,9.13
2016-12-26T00:59:15.690Z,9.11
2016-12-26T01:00:35.274Z,9.11
2016-12-26T01:00:57.400Z,9.10
2016-12-26T01:01:19.545Z,9.11
2016-12-26T01:01:41.299Z,9.11
2016-12-26T01:02:30.601Z,9.11
2016-12-26T01:02:52.338Z,9.10
2016-12-26T01:03:14.167Z,9.11
2016-12-26T01:03:35.931Z,9.10
2016-12-26T01:03:57.867Z,9.12
2016-12-26T01:04:20.296Z,9.10
2016-12-26T01:04:46.922Z,9.12
2016-12-26T01:05:08.804Z,9.13
2016-12-26T01:05:30.536Z,9.14
2016-12-26T01:05:54.960Z,9.12
2016-12-26T01:06:16.711Z,9.12
2016-12-26T01:06:38.458Z,9.12
2016-12-26T01:07:00.198Z,9.14
2016-12-26T01:07:21.952Z,9.15
2016-12-26T01:07:48.469Z,9.13
2016-12-26T01:08:11.214Z,9.11
2016-12-26T01:08:37.732Z,9.12
2016-12-26T01:09:02.199Z,9.12
2016-12-26T01:09:24.546Z,9.13
2016-12-26T01:09:46.283Z,9.13
2016-12-26T01:10:08.043Z,9.12
2016-12-26T01:10:29.901Z,9.12
2016-12-26T01:10:51.645Z,9.12
2016-12-26T01:11:13.385Z,9.11
2016-12-26T01:11:35.223Z,9.12
2016-12-26T01:11:58.077Z,9.11
2016-12-26T01:12:19.830Z,9.12
2016-12-26T01:12:47.364Z,9.12
2016-12-26T01:13:09.114Z,9.11
2016-12-26T01:13:35.646Z,9.10
2016-12-26T01:13:57.380Z,9.11
2016-12-26T01:14:19.128Z,9.13
2016-12-26T01:14:40.880Z,9.14
2016-12-26T01:15:29.157Z,9.12
2016-12-26T01:16:22.176Z,9.12
2016-12-26T01:16:43.930Z,9.10
2016-12-26T01:17:06.232Z,9.11
2016-12-26T01:17:28.040Z,9.13
2016-12-26T01:17:50.804Z,9.14
2016-12-26T01:18:18.313Z,9.12
2016-12-26T01:19:11.325Z,9.13
2016-12-26T01:19:37.837Z,9.14
2016-12-26T01:19:59.676Z,9.14
2016-12-26T01:20:21.447Z,9.11
2016-12-26T01:20:43.178Z,9.12
2016-12-26T01:21:09.689Z,9.08
2016-12-26T01:21:32.432Z,9.10
2016-12-26T01:21:58.945Z,9.09
2016-12-26T01:22:20.692Z,9.09
2016-12-26T01:22:42.424Z,9.08
2016-12-26T01:23:04.249Z,9.07
2016-12-26T01:23:52.764Z,9.10
2016-12-26T01:24:14.544Z,9.08
2016-12-26T01:24:41.049Z,9.06
2016-12-26T01:25:02.823Z,9.08
2016-12-26T01:25:29.331Z,9.06
2016-12-26T01:25:55.830Z,9.06
2016-12-26T01:26:17.579Z,9.05
2016-12-26T01:26:39.437Z,9.05
2016-12-26T01:27:06.256Z,9.02
2016-12-26T01:27:28.070Z,9.05
2016-12-26T01:27:49.969Z,9.04
2016-12-26T01:28:11.744Z,9.03
2016-12-26T01:28:33.665Z,9.05
2016-12-26T01:28:55.448Z,9.06
2016-12-26T01:29:17.181Z,9.05
2016-12-26T01:29:38.928Z,9.06
2016-12-26T01:30:10.219Z,9.04
2016-12-26T01:30:31.981Z,9.03
2016-12-26T01:30:58.492Z,9.03
2016-12-26T01:31:20.238Z,9.02
2016-12-26T01:31:43.002Z,9.03
2016-12-26T01:32:04.744Z,8.99
2016-12-26T01:32:27.545Z,9.00
2016-12-26T01:32:49.303Z,8.97
2016-12-26T01:33:11.099Z,8.99
2016-12-26T01:33:32.848Z,9.00
2016-12-26T01:34:21.122Z,9.00
2016-12-26T01:34:42.867Z,9.00
2016-12-26T01:35:04.615Z,9.02
2016-12-26T01:35:27.383Z,9.02
2016-12-26T01:35:51.417Z,9.03
2016-12-26T01:36:17.961Z,9.01
2016-12-26T01:36:39.873Z,9.03
2016-12-26T01:37:04.505Z,9.01
2016-12-26T01:37:27.253Z,9.04
2016-12-26T01:37:49.035Z,9.02
2016-12-26T01:38:10.853Z,8.99
2016-12-26T01:38:32.622Z,8.98
2016-12-26T01:38:55.418Z,8.99
2016-12-26T01:39:20.277Z,9.00
2016-12-26T01:40:09.524Z,9.00
2016-12-26T01:40:37.032Z,9.00
2016-12-26T01:40:59.768Z,9.00
2016-12-26T01:41:27.372Z,9.00
2016-12-26T01:41:49.110Z,9.01
2016-12-26T01:42:10.880Z,8.99
2016-12-26T01:42:32.673Z,9.00
2016-12-26T01:42:59.178Z,8.99
2016-12-26T01:43:20.945Z,9.01
2016-12-26T01:43:42.721Z,9.01
2016-12-26T01:44:04.472Z,9.03
2016-12-26T01:44:26.250Z,9.02
2016-12-26T01:44:48.990Z,9.02
2016-12-26T01:45:10.732Z,9.00
2016-12-26T01:45:32.481Z,9.01
2016-12-26T01:45:54.225Z,9.03
2016-12-26T01:46:17.099Z,9.02
2016-12-26T01:46:40.097Z,9.00
2016-12-26T01:47:02.031Z,8.97
2016-12-26T01:47:23.805Z,8.97
2016-12-26T01:47:45.551Z,8.97
2016-12-26T01:48:07.296Z,8.98
2016-12-26T01:48:29.080Z,8.96
2016-12-26T01:48:51.816Z,8.96
2016-12-26T01:49:23.117Z,8.97
2016-12-26T01:49:49.627Z,8.95
2016-12-26T01:50:11.375Z,8.96
2016-12-26T01:50:33.156Z,8.96
2016-12-26T01:51:01.663Z,8.96
2016-12-26T01:51:23.666Z,8.93
2016-12-26T01:51:50.411Z,8.94
2016-12-26T01:52:12.832Z,8.95
2016-12-26T01:52:34.840Z,8.97
2016-12-26T01:52:56.833Z,8.96
2016-12-26T01:53:18.745Z,8.97
2016-12-26T01:53:40.590Z,8.99
2016-12-26T01:54:02.501Z,9.00
2016-12-26T01:54:24.400Z,9.02
2016-12-26T01:55:12.733Z,9.00
2016-12-26T01:55:34.482Z,8.99
2016-12-26T01:55:56.290Z,8.98
2016-12-26T01:56:18.028Z,8.98
2016-12-26T01:56:39.779Z,8.98
2016-12-26T01:57:07.290Z,8.97
2016-12-26T01:57:29.050Z,8.99
2016-12-26T01:58:00.320Z,8.99
2016-12-26T01:58:31.595Z,8.98
2016-12-26T01:59:51.135Z,8.95
2016-12-26T02:00:50.455Z,8.96
2016-12-26T02:01:12.181Z,8.94
2016-12-26T02:01:33.938Z,8.95
2016-12-26T02:01:55.733Z,8.97
2016-12-26T02:02:18.472Z,8.95
2016-12-26T02:02:49.772Z,8.97
2016-12-26T02:03:11.538Z,8.96
2016-12-26T02:03:38.043Z,8.98
2016-12-26T02:04:01.055Z,8.99
2016-12-26T02:04:23.038Z,9.00
2016-12-26T02:04:49.655Z,8.97
2016-12-26T02:05:12.474Z,8.99
2016-12-26T02:05:35.215Z,9.01
2016-12-26T02:06:02.735Z,9.03
2016-12-26T02:06:24.489Z,9.04
2016-12-26T02:06:50.988Z,9.04
2016-12-26T02:07:13.721Z,9.03
2016-12-26T02:07:35.461Z,9.03
2016-12-26T02:08:02.990Z,9.02
2016-12-26T02:08:26.732Z,9.00
2016-12-26T02:09:29.282Z,9.00
2016-12-26T02:09:51.062Z,9.01
2016-12-26T02:10:12.938Z,9.01
2016-12-26T02:10:34.813Z,9.02
2016-12-26T02:10:56.708Z,9.00
2016-12-26T02:11:18.446Z,9.00
2016-12-26T02:11:43.140Z,8.97
2016-12-26T02:12:04.889Z,8.99
2016-12-26T02:12:32.467Z,9.00
2016-12-26T02:12:54.224Z,9.00
2016-12-26T02:13:16.473Z,9.01
2016-12-26T02:13:38.928Z,9.00
2016-12-26T02:14:00.682Z,8.96
2016-12-26T02:14:49.949Z,8.95
2016-12-26T02:15:11.696Z,8.97
2016-12-26T02:15:33.439Z,8.99
2016-12-26T02:15:55.236Z,9.00
2016-12-26T02:16:16.973Z,9.01
2016-12-26T02:16:39.032Z,9.01
2016-12-26T02:17:05.556Z,8.99
2016-12-26T02:17:27.383Z,8.99
2016-12-26T02:17:49.124Z,9.01
2016-12-26T02:18:10.868Z,9.03
2016-12-26T02:18:32.631Z,9.02
2016-12-26T02:18:54.437Z,9.03
2016-12-26T02:19:16.181Z,9.00
2016-12-26T02:19:37.953Z,9.01
2016-12-26T02:19:59.703Z,9.01
2016-12-26T02:20:22.530Z,9.01
2016-12-26T02:20:44.283Z,9.00
2016-12-26T02:21:06.033Z,9.00
2016-12-26T02:21:27.790Z,9.00
2016-12-26T02:21:49.542Z,9.02
2016-12-26T02:22:12.013Z,9.01
2016-12-26T02:23:01.401Z,9.00
2016-12-26T02:23:23.674Z,9.02
2016-12-26T02:23:54.953Z,8.99
2016-12-26T02:24:16.689Z,9.01
2016-12-26T02:24:38.452Z,9.02
2016-12-26T02:25:01.179Z,9.02
2016-12-26T02:25:22.922Z,9.02
2016-12-26T02:25:44.972Z,9.05
2016-12-26T02:26:06.801Z,9.03
2016-12-26T02:26:28.552Z,9.05
2016-12-26T02:26:50.284Z,9.04
2016-12-26T02:27:21.561Z,9.06
2016-12-26T02:27:43.324Z,9.07
2016-12-26T02:28:05.066Z,9.07
2016-12-26T02:28:36.338Z,9.06
2016-12-26T02:28:58.080Z,9.07
2016-12-26T02:29:20.873Z,9.08
2016-12-26T02:29:42.711Z,9.06
2016-12-26T02:30:04.448Z,9.04
2016-12-26T02:30:26.193Z,9.04
2016-12-26T02:30:47.940Z,9.04
2016-12-26T02:31:14.450Z,9.04
2016-12-26T02:31:36.201Z,9.04
2016-12-26T02:31:58.065Z,9.04
2016-12-26T02:32:22.886Z,9.07
2016-12-26T02:32:46.140Z,9.08
2016-12-26T02:33:07.903Z,9.07
2016-12-26T02:33:29.613Z,9.06
2016-12-26T02:33:51.347Z,9.06
2016-12-26T02:34:13.110Z,9.07
2016-12-26T02:34:34.868Z,9.09
2016-12-26T02:34:56.612Z,9.07
2016-12-26T02:35:18.534Z,9.06
2016-12-26T02:35:40.718Z,9.06
2016-12-26T02:36:03.083Z,9.08
2016-12-26T02:36:25.170Z,9.09
2016-12-26T02:36:47.226Z,9.09
2016-12-26T02:37:09.046Z,9.09
2016-12-26T02:37:30.789Z,9.10
2016-12-26T02:37:57.300Z,9.11
2016-12-26T02:38:19.041Z,9.12
2016-12-26T02:38:41.793Z,9.11
2016-12-26T02:39:03.539Z,9.10
2016-12-26T02:39:25.271Z,9.10
2016-12-26T02:39:47.013Z,9.07
2016-12-26T02:40:08.757Z,9.09
2016-12-26T02:40:30.505Z,9.10
2016-12-26T02:40:52.273Z,9.11
2016-12-26T02:41:14.134Z,9.11
2016-12-26T02:41:35.871Z,9.12
2016-12-26T02:41:57.644Z,9.12
2016-12-26T02:42:19.389Z,9.11
2016-12-26T02:42:41.141Z,9.11
2016-12-26T02:43:02.984Z,9.10
2016-12-26T02:43:24.866Z,9.11
2016-12-26T02:43:46.734Z,9.14
2016-12-26T02:44:08.483Z,9.14
2016-12-26T02:44:30.248Z,9.15
2016-12-26T02:44:52.028Z,9.16
2016-12-26T02:45:13.765Z,9.16
2016-12-26T02:45:35.518Z,9.15
2016-12-26T02:45:57.327Z,9.17
2016-12-26T02:46:24.838Z,9.15
2016-12-26T02:47:25.615Z,9.18
2016-12-26T02:47:47.355Z,9.17
2016-12-26T02:48:13.858Z,9.18
2016-12-26T02:48:35.645Z,9.18
2016-12-26T02:48:57.628Z,9.19
2016-12-26T02:49:19.751Z,9.19
2016-12-26T02:49:41.580Z,9.19
2016-12-26T02:50:03.640Z,9.18
2016-12-26T02:50:57.985Z,9.17
2016-12-26T02:51:19.743Z,9.19
2016-12-26T02:51:41.507Z,9.19
2016-12-26T02:52:30.744Z,9.18
2016-12-26T02:52:53.498Z,9.19
2016-12-26T02:53:15.242Z,9.19
2016-12-26T02:53:37.180Z,9.19
2016-12-26T02:53:58.996Z,9.19
2016-12-26T02:54:21.232Z,9.19
2016-12-26T02:54:42.979Z,9.19
2016-12-26T02:55:04.718Z,9.18
2016-12-26T02:55:26.452Z,9.18
2016-12-26T02:55:48.255Z,9.19
2016-12-26T02:56:09.996Z,9.20
2016-12-26T02:56:31.753Z,9.21
2016-12-26T02:56:54.542Z,9.19
2016-12-26T02:57:16.327Z,9.18
2016-12-26T02:57:38.061Z,9.19
2016-12-26T02:57:59.806Z,9.18
2016-12-26T02:58:21.582Z,9.19
2016-12-26T02:58:43.379Z,9.19
2016-12-26T02:59:05.154Z,9.18
2016-12-26T02:59:31.669Z,9.19
2016-12-26T02:59:54.414Z,9.18
2016-12-26T03:00:20.928Z,9.19
2016-12-26T03:01:09.202Z,9.17
2016-12-26T03:01:40.474Z,9.17
2016-12-26T03:02:03.226Z,9.15
2016-12-26T03:02:25.984Z,9.13
2016-12-26T03:03:21.000Z,9.09
2016-12-26T03:03:42.750Z,9.10
2016-12-26T03:04:10.269Z,9.10
2016-12-26T03:04:32.088Z,9.09
2016-12-26T03:04:53.859Z,9.08
2016-12-26T03:05:15.962Z,9.08
2016-12-26T03:05:38.189Z,9.03
2016-12-26T03:06:00.289Z,9.05
2016-12-26T03:06:53.414Z,9.03
2016-12-26T03:07:15.188Z,9.05
2016-12-26T03:07:36.933Z,9.02
2016-12-26T03:07:58.752Z,9.03
2016-12-26T03:08:20.710Z,9.03
2016-12-26T03:08:52.080Z,9.05
2016-12-26T03:09:13.890Z,9.05
2016-12-26T03:09:49.935Z,9.06
2016-12-26T03:10:12.213Z,9.06
2016-12-26T03:10:38.718Z,9.05
2016-12-26T03:11:00.535Z,9.03
2016-12-26T03:11:22.263Z,9.02
2016-12-26T03:12:37.062Z,9.00
2016-12-26T03:13:25.643Z,8.98
2016-12-26T03:13:50.311Z,8.99
2016-12-26T03:14:15.632Z,9.00
2016-12-26T03:14:37.404Z,8.99
2016-12-26T03:15:03.903Z,8.99
2016-12-26T03:15:26.673Z,8.99
2016-12-26T03:15:48.468Z,8.98
2016-12-26T03:16:10.210Z,9.01
2016-12-26T03:16:32.047Z,8.99
2016-12-26T03:16:53.834Z,9.01
2016-12-26T03:17:21.340Z,8.99
2016-12-26T03:17:44.090Z,8.99
2016-12-26T03:18:05.843Z,8.96
2016-12-26T03:18:27.633Z,8.98
2016-12-26T03:18:49.375Z,8.96
2016-12-26T03:19:37.643Z,8.97
2016-12-26T03:20:04.164Z,8.98
2016-12-26T03:20:25.897Z,8.97
2016-12-26T03:20:50.376Z,8.95
2016-12-26T03:21:12.242Z,8.98
2016-12-26T03:21:34.264Z,9.01
2016-12-26T03:21:56.085Z,9.02
2016-12-26T03:22:18.114Z,9.03
2016-12-26T03:22:39.875Z,9.02
2016-12-26T03:23:06.411Z,9.00
2016-12-26T03:23:28.323Z,8.99
2016-12-26T03:23:50.075Z,8.99
2016-12-26T03:24:11.870Z,8.99
2016-12-26T03:24:33.602Z,8.96
2016-12-26T03:24:55.340Z,9.00
2016-12-26T03:25:17.080Z,8.97
2016-12-26T03:25:38.828Z,8.96
2016-12-26T03:26:00.578Z,8.93
2016-12-26T03:26:22.328Z,8.96
2016-12-26T03:27:10.711Z,8.96
2016-12-26T03:27:32.468Z,8.97
2016-12-26T03:27:55.219Z,8.97
2016-12-26T03:28:43.479Z,8.92
2016-12-26T03:29:05.232Z,8.92
2016-12-26T03:29:26.966Z,8.92
2016-12-26T03:29:53.471Z,8.85
2016-12-26T03:30:15.259Z,8.87
2016-12-26T03:30:37.010Z,8.86
2016-12-26T03:30:58.766Z,8.87
2016-12-26T03:31:20.502Z,8.87
2016-12-26T03:31:42.288Z,8.89
2016-12-26T03:32:04.037Z,8.90
2016-12-26T03:32:25.784Z,8.92
2016-12-26T03:32:47.532Z,8.94
2016-12-26T03:33:09.283Z,8.93
2016-12-26T03:33:31.025Z,8.93
2016-12-26T03:33:52.773Z,8.94
2016-12-26T03:34:14.528Z,8.93
2016-12-26T03:34:36.272Z,8.92
2016-12-26T03:34:58.024Z,8.89
2016-12-26T03:35:24.560Z,8.87
2016-12-26T03:35:46.372Z,8.84
2016-12-26T03:36:13.034Z,8.83
2016-12-26T03:36:34.776Z,8.88
2016-12-26T03:36:57.544Z,8.85
2016-12-26T03:37:19.280Z,8.85
2016-12-26T03:37:45.787Z,8.87
2016-12-26T03:38:08.543Z,8.88
2016-12-26T03:38:30.486Z,8.87
2016-12-26T03:38:52.244Z,8.84
2016-12-26T03:39:13.990Z,8.83
2016-12-26T03:39:35.741Z,8.83
2016-12-26T03:40:02.255Z,8.88
2016-12-26T03:40:24.000Z,8.88
2016-12-26T03:40:45.761Z,8.91
2016-12-26T03:41:07.497Z,8.85
2016-12-26T03:41:29.265Z,8.81
2016-12-26T03:41:51.027Z,8.80
2016-12-26T03:42:12.782Z,8.84
2016-12-26T03:43:11.631Z,8.88
2016-12-26T03:43:38.147Z,8.86
2016-12-26T03:44:00.187Z,8.87
2016-12-26T03:44:26.757Z,8.90
2016-12-26T03:44:50.500Z,8.88
2016-12-26T03:45:12.389Z,8.87
2016-12-26T03:45:34.286Z,8.85
2016-12-26T03:45:56.114Z,8.88
2016-12-26T03:46:17.863Z,8.86
2016-12-26T03:46:39.617Z,8.85
2016-12-26T03:47:01.363Z,8.89
2016-12-26T03:47:23.101Z,8.84
2016-12-26T03:47:44.836Z,8.84
2016-12-26T03:48:06.592Z,8.83
2016-12-26T03:48:29.363Z,8.83
2016-12-26T03:48:55.872Z,8.83
2016-12-26T03:49:22.381Z,8.86
2016-12-26T03:49:44.147Z,8.83
2016-12-26T03:50:05.898Z,8.84
2016-12-26T03:50:27.669Z,8.86
2016-12-26T03:51:16.934Z,8.78
2016-12-26T03:51:39.926Z,8.81
2016-12-26T03:52:03.834Z,8.80
2016-12-26T03:52:25.578Z,8.82
2016-12-26T03:52:48.313Z,8.82
2016-12-26T03:53:10.049Z,8.84
2016-12-26T03:53:31.784Z,8.86
2016-12-26T03:53:54.585Z,8.87
2016-12-26T03:54:21.107Z,8.88
2016-12-26T03:54:43.931Z,8.86
2016-12-26T03:55:05.996Z,8.85
2016-12-26T03:55:28.109Z,8.81
2016-12-26T03:55:50.241Z,8.77
2016-12-26T03:56:12.116Z,8.81
2016-12-26T03:56:34.917Z,8.82
2016-12-26T03:56:57.673Z,8.78
2016-12-26T03:57:20.414Z,8.80
2016-12-26T03:57:42.229Z,8.82
2016-12-26T03:58:03.977Z,8.82
2016-12-26T03:58:25.716Z,8.84
2016-12-26T03:58:52.230Z,8.81
2016-12-26T03:59:13.979Z,8.75
2016-12-26T03:59:41.508Z,8.77
2016-12-26T04:00:03.257Z,8.78
2016-12-26T04:00:29.786Z,8.76
2016-12-26T04:01:05.826Z,8.72
2016-12-26T04:01:28.101Z,8.73
2016-12-26T04:01:49.837Z,8.76
2016-12-26T04:02:12.636Z,8.76
2016-12-26T04:02:34.468Z,8.78
2016-12-26T04:02:56.213Z,8.77
2016-12-26T04:03:17.955Z,8.79
2016-12-26T04:03:39.708Z,8.79
2016-12-26T04:04:01.592Z,8.77
2016-12-26T04:04:23.471Z,8.77
2016-12-26T04:04:45.238Z,8.77
2016-12-26T04:05:07.020Z,8.79
2016-12-26T04:05:31.619Z,8.77
2016-12-26T04:05:53.410Z,8.77
2016-12-26T04:06:15.154Z,8.76
2016-12-26T04:07:03.413Z,8.74
2016-12-26T04:07:25.206Z,8.77
2016-12-26T04:07:46.962Z,8.80
2016-12-26T04:08:08.695Z,8.80
2016-12-26T04:08:30.442Z,8.80
2016-12-26T04:08:52.285Z,8.80
2016-12-26T04:09:14.011Z,8.82
2016-12-26T04:09:38.272Z,8.82
2016-12-26T04:10:09.549Z,8.85
2016-12-26T04:10:31.394Z,8.82
2016-12-26T04:10:53.221Z,8.79
2016-12-26T04:11:14.962Z,8.76
2016-12-26T04:11:36.850Z,8.77
2016-12-26T04:11:58.591Z,8.78
2016-12-26T04:12:21.328Z,8.76
2016-12-26T04:12:43.070Z,8.79
2016-12-26T04:13:04.827Z,8.79
2016-12-26T04:13:26.584Z,8.76
2016-12-26T04:13:48.322Z,8.79
2016-12-26T04:14:10.069Z,8.80
2016-12-26T04:14:31.834Z,8.80
2016-12-26T04:14:53.575Z,8.80
2016-12-26T04:15:15.316Z,8.80
2016-12-26T04:15:37.143Z,8.78
2016-12-26T04:15:58.960Z,8.79
2016-12-26T04:16:20.882Z,8.79
2016-12-26T04:16:42.783Z,8.75
2016-12-26T04:17:04.524Z,8.76
2016-12-26T04:17:26.387Z,8.74
2016-12-26T04:17:48.129Z,8.76
2016-12-26T04:18:09.866Z,8.77
2016-12-26T04:18:33.677Z,8.82
2016-12-26T04:18:55.354Z,8.80
2016-12-26T04:19:21.855Z,8.79
2016-12-26T04:19:43.636Z,8.78
2016-12-26T04:20:08.079Z,8.79
2016-12-26T04:20:58.855Z,8.77
2016-12-26T04:21:20.642Z,8.74
2016-12-26T04:21:42.392Z,8.77
2016-12-26T04:22:04.134Z,8.74
2016-12-26T04:22:25.871Z,8.74
2016-12-26T04:22:47.638Z,8.75
2016-12-26T04:23:09.425Z,8.74
2016-12-26T04:23:31.308Z,8.71
2016-12-26T04:24:22.460Z,8.73
2016-12-26T04:24:44.259Z,8.70
2016-12-26T04:25:06.996Z,8.71
2016-12-26T04:25:28.747Z,8.75
2016-12-26T04:25:50.537Z,8.72
2016-12-26T04:26:12.301Z,8.69
2016-12-26T04:26:34.081Z,8.71
2016-12-26T04:26:55.822Z,8.70
2016-12-26T04:27:17.577Z,8.72
2016-12-26T04:27:39.450Z,8.74
2016-12-26T04:28:01.294Z,8.74
2016-12-26T04:28:23.069Z,8.73
2016-12-26T04:28:44.805Z,8.73
2016-12-26T04:29:06.553Z,8.72
2016-12-26T04:29:28.289Z,8.73
2016-12-26T04:29:50.029Z,8.73
2016-12-26T04:30:11.767Z,8.73
2016-12-26T04:30:33.510Z,8.73
2016-12-26T04:30:55.386Z,8.76
2016-12-26T04:31:17.202Z,8.74
2016-12-26T04:31:38.973Z,8.77
2016-12-26T04:32:32.976Z,8.74
2016-12-26T04:32:59.482Z,8.67
2016-12-26T04:33:21.320Z,8.65
2016-12-26T04:34:25.419Z,8.70
2016-12-26T04:34:51.923Z,8.65
2016-12-26T04:35:41.207Z,8.68
2016-12-26T04:36:08.532Z,8.66
2016-12-26T04:36:30.301Z,8.70
2016-12-26T04:36:52.078Z,8.71
2016-12-26T04:37:13.828Z,8.74
2016-12-26T04:37:35.835Z,8.73
2016-12-26T04:37:57.582Z,8.72
2016-12-26T04:38:19.321Z,8.77
2016-12-26T04:38:41.053Z,8.73
2016-12-26T04:39:02.801Z,8.74
2016-12-26T04:39:24.550Z,8.76
2016-12-26T04:40:17.613Z,8.76
2016-12-26T04:40:41.956Z,8.73
2016-12-26T04:41:06.277Z,8.70
2016-12-26T04:41:28.151Z,8.67
2016-12-26T04:41:50.166Z,8.71
2016-12-26T04:42:11.909Z,8.72
2016-12-26T04:42:34.647Z,8.71
2016-12-26T04:42:57.411Z,8.73
2016-12-26T04:43:24.898Z,8.69
2016-12-26T04:43:51.410Z,8.68
2016-12-26T04:44:13.146Z,8.69
2016-12-26T04:44:39.651Z,8.70
2016-12-26T04:45:01.387Z,8.70
2016-12-26T04:45:23.181Z,8.71
2016-12-26T04:45:44.988Z,8.72
2016-12-26T04:46:06.728Z,8.73
2016-12-26T04:46:29.542Z,8.76
2016-12-26T04:46:51.586Z,8.78
2016-12-26T04:47:13.413Z,8.78
2016-12-26T04:47:35.163Z,8.78
2016-12-26T04:47:56.897Z,8.77
2016-12-26T04:48:18.683Z,8.74
2016-12-26T04:48:40.475Z,8.74
2016-12-26T04:49:02.222Z,8.73
2016-12-26T04:49:24.015Z,8.77
2016-12-26T04:49:45.755Z,8.77
2016-12-26T04:50:07.490Z,8.79
2016-12-26T04:50:29.261Z,8.79
2016-12-26T04:50:51.992Z,8.76
2016-12-26T04:51:50.778Z,8.74
2016-12-26T04:52:12.524Z,8.74
2016-12-26T04:52:35.276Z,8.75
2016-12-26T04:53:01.800Z,8.72
2016-12-26T04:53:23.536Z,8.74
2016-12-26T04:53:50.160Z,8.78
2016-12-26T04:54:11.927Z,8.77
2016-12-26T04:54:35.692Z,8.78
2016-12-26T04:55:24.934Z,8.81
2016-12-26T04:55:51.439Z,8.82
2016-12-26T04:56:17.944Z,8.79
2016-12-26T04:56:40.692Z,8.77
2016-12-26T04:57:02.451Z,8.74
2016-12-26T04:57:50.759Z,8.70
2016-12-26T04:58:12.508Z,8.71
2016-12-26T04:58:34.393Z,8.72
2016-12-26T04:58:56.166Z,8.75
2016-12-26T04:59:17.914Z,8.76
2016-12-26T04:59:39.655Z,8.77
2016-12-26T05:00:01.398Z,8.79
2016-12-26T05:00:23.146Z,8.76
2016-12-26T05:01:11.420Z,8.73
2016-12-26T05:01:38.927Z,8.76
2016-12-26T05:02:00.686Z,8.76
2016-12-26T05:02:53.811Z,8.72
2016-12-26T05:03:15.601Z,8.73
2016-12-26T05:03:37.857Z,8.69
2016-12-26T05:03:59.751Z,8.70
2016-12-26T05:04:22.753Z,8.69
2016-12-26T05:04:44.654Z,8.73
2016-12-26T05:05:06.522Z,8.73
2016-12-26T05:06:01.752Z,8.78
2016-12-26T05:06:24.145Z,8.79
2016-12-26T05:06:46.355Z,8.77
2016-12-26T05:07:08.442Z,8.77
2016-12-26T05:07:30.501Z,8.71
2016-12-26T05:07:52.423Z,8.70
2016-12-26T05:08:19.296Z,8.70
2016-12-26T05:08:45.988Z,8.72
2016-12-26T05:09:08.571Z,8.70
2016-12-26T05:09:31.483Z,8.69
2016-12-26T05:09:53.319Z,8.72
2016-12-26T05:10:15.367Z,8.74
2016-12-26T05:10:41.871Z,8.71
2016-12-26T05:11:03.613Z,8.69
2016-12-26T05:11:31.121Z,8.71
2016-12-26T05:11:57.700Z,8.70
2016-12-26T05:12:19.432Z,8.70
2016-12-26T05:12:41.219Z,8.71
2016-12-26T05:13:03.001Z,8.73
2016-12-26T05:13:24.775Z,8.69
2016-12-26T05:13:46.518Z,8.68
2016-12-26T05:14:08.301Z,8.67
2016-12-26T05:14:30.069Z,8.67
2016-12-26T05:14:57.588Z,8.68
2016-12-26T05:15:21.993Z,8.72
2016-12-26T05:15:43.747Z,8.70
2016-12-26T05:16:05.506Z,8.69
2016-12-26T05:16:27.241Z,8.70
2016-12-26T05:16:49.000Z,8.69
2016-12-26T05:17:10.762Z,8.72
2016-12-26T05:17:33.509Z,8.72
2016-12-26T05:17:55.259Z,8.73
2016-12-26T05:18:17.026Z,8.73
2016-12-26T05:18:38.783Z,8.73
2016-12-26T05:19:00.613Z,8.72
2016-12-26T05:19:22.426Z,8.71
2016-12-26T05:19:44.178Z,8.71
2016-12-26T05:20:06.944Z,8.70
2016-12-26T05:20:30.690Z,8.71
2016-12-26T05:20:52.688Z,8.72
2016-12-26T05:21:19.200Z,8.69
2016-12-26T05:21:40.958Z,8.70
2016-12-26T05:22:02.700Z,8.69
2016-12-26T05:22:24.466Z,8.71
2016-12-26T05:22:46.250Z,8.71
2016-12-26T05:23:07.989Z,8.68
2016-12-26T05:23:29.729Z,8.68
2016-12-26T05:23:51.562Z,8.65
2016-12-26T05:24:13.364Z,8.69
2016-12-26T05:24:35.107Z,8.66
2016-12-26T05:24:56.849Z,8.66
2016-12-26T05:25:18.590Z,8.69
2016-12-26T05:25:40.353Z,8.66
2016-12-26T05:26:03.109Z,8.66
2016-12-26T05:26:24.847Z,8.67
2016-12-26T05:26:46.750Z,8.64
2016-12-26T05:27:09.527Z,8.63
2016-12-26T05:27:31.284Z,8.64
2016-12-26T05:27:53.042Z,8.66
2016-12-26T05:28:14.783Z,8.68
2016-12-26T05:28:36.515Z,8.70
2016-12-26T05:29:08.786Z,8.70
2016-12-26T05:29:31.544Z,8.67